createdAt,value
2022-09-28T00:02:03.942Z,98946.69
2022-09-28T00:04:33.298Z,98916.78
2022-09-28T00:07:03.559Z,98953.88
2022-09-28T00:09:32.368Z,98944.38
2022-09-28T00:12:01.218Z,98947.13
2022-09-28T00:14:31.817Z,98948.97
2022-09-28T00:17:02.391Z,98634.38
2022-09-28T00:19:31.250Z,98936.03
2022-09-28T00:21:59.967Z,98918.88
2022-09-28T00:24:30.609Z,98823.38
2022-09-28T00:27:02.635Z,98939.50
2022-09-28T00:29:34.339Z,98936.88
2022-09-28T00:32:05.953Z,98943.75
2022-09-28T00:34:41.079Z,98942.03
2022-09-28T00:37:10.956Z,98786.38
2022-09-28T00:39:42.454Z,98803.41
2022-09-28T00:42:17.678Z,98936.63
2022-09-28T00:44:50.471Z,98919.84
2022-09-28T00:47:42.972Z,98925.47
2022-09-28T00:50:23.874Z,98929.50
2022-09-28T00:53:00.105Z,98734.03
2022-09-28T00:55:39.592Z,98843.13
2022-09-28T00:58:14.443Z,98919.88
2022-09-28T01:00:44.321Z,98831.31
2022-09-28T01:03:14.349Z,98913.13
2022-09-28T01:05:44.778Z,98669.22
2022-09-28T01:08:14.618Z,98913.41
2022-09-28T01:10:45.426Z,98860.09
2022-09-28T01:13:16.280Z,98852.53
2022-09-28T01:15:58.273Z,98911.59
2022-09-28T01:18:41.005Z,98844.84
2022-09-28T01:21:18.264Z,98900.41
2022-09-28T01:24:15.247Z,98905.53
2022-09-28T01:27:06.048Z,98909.50
2022-09-28T01:29:58.132Z,98885.09
2022-09-28T01:32:39.485Z,98909.03
2022-09-28T01:35:16.376Z,98903.56
2022-09-28T01:37:53.249Z,98901.56
2022-09-28T01:40:26.978Z,98903.03
2022-09-28T01:43:05.258Z,98872.59
2022-09-28T01:45:41.922Z,98776.56
2022-09-28T01:48:18.570Z,98885.84
2022-09-28T01:50:54.904Z,98888.31
2022-09-28T01:53:31.328Z,98890.19
2022-09-28T01:56:12.622Z,98880.06
2022-09-28T01:58:49.884Z,98890.41
2022-09-28T02:01:28.231Z,98881.09
2022-09-28T02:04:03.886Z,98776.19
2022-09-28T02:06:39.675Z,98876.09
2022-09-28T02:09:13.030Z,98688.41
2022-09-28T02:11:51.539Z,98877.91
2022-09-28T02:14:24.384Z,98880.59
2022-09-28T02:16:56.735Z,98879.91
2022-09-28T02:19:34.563Z,98880.09
2022-09-28T02:22:12.713Z,98848.31
2022-09-28T02:24:47.078Z,98821.00
2022-09-28T02:27:35.548Z,98841.66
2022-09-28T02:30:08.655Z,98872.66
2022-09-28T02:32:42.629Z,98817.63
2022-09-28T02:35:16.794Z,98876.38
2022-09-28T02:37:47.368Z,98872.06
2022-09-28T02:40:17.571Z,98866.69
2022-09-28T02:42:57.845Z,98805.69
2022-09-28T02:45:51.627Z,98790.31
2022-09-28T02:49:00.150Z,98872.06
2022-09-28T02:51:51.133Z,98839.34
2022-09-28T02:55:05.563Z,98845.25
2022-09-28T02:57:57.607Z,98846.13
2022-09-28T03:00:27.516Z,98864.31
2022-09-28T03:03:12.078Z,98697.44
2022-09-28T03:05:52.920Z,98822.13
2022-09-28T03:08:30.828Z,98751.94
2022-09-28T03:11:05.565Z,98720.03
2022-09-28T03:13:36.562Z,98860.25
2022-09-28T03:16:11.309Z,98819.66
2022-09-28T03:18:42.610Z,98852.38
2022-09-28T03:21:14.734Z,98800.75
2022-09-28T03:23:44.502Z,98843.72
2022-09-28T03:26:13.949Z,98726.91
2022-09-28T03:28:42.846Z,98837.63
2022-09-28T03:31:16.949Z,98697.44
2022-09-28T03:33:47.211Z,98835.81
2022-09-28T03:36:15.984Z,98642.50
2022-09-28T03:38:44.817Z,98792.91
2022-09-28T03:41:13.616Z,98841.06
2022-09-28T03:43:52.154Z,98837.63
2022-09-28T03:46:21.217Z,98609.94
2022-09-28T03:48:54.426Z,98710.59
2022-09-28T03:51:23.185Z,98827.38
2022-09-28T03:53:53.114Z,98835.22
2022-09-28T03:56:22.688Z,98822.09
2022-09-28T03:58:57.447Z,98822.13
2022-09-28T04:01:28.139Z,98820.34
2022-09-28T04:03:59.569Z,98546.28
2022-09-28T04:06:29.465Z,98823.69
2022-09-28T04:08:58.569Z,98822.88
2022-09-28T04:11:34.920Z,98817.72
2022-09-28T04:14:11.800Z,98653.59
2022-09-28T04:16:40.765Z,98810.91
2022-09-28T04:19:14.243Z,98804.78
2022-09-28T04:22:09.304Z,98743.88
2022-09-28T04:24:38.005Z,98807.56
2022-09-28T04:27:25.167Z,98582.63
2022-09-28T04:29:53.888Z,98797.22
2022-09-28T04:32:22.665Z,98809.53
2022-09-28T04:34:54.238Z,98806.13
2022-09-28T04:37:23.362Z,98809.66
2022-09-28T04:39:52.519Z,98811.53
2022-09-28T04:42:21.715Z,98814.28
2022-09-28T04:44:51.623Z,98820.50
2022-09-28T04:47:20.625Z,98816.06
2022-09-28T04:50:18.308Z,98819.41
2022-09-28T04:53:05.872Z,98824.53
2022-09-28T04:55:34.821Z,98821.13
2022-09-28T04:58:05.309Z,98826.47
2022-09-28T05:00:36.617Z,98781.81
2022-09-28T05:03:27.804Z,98834.38
2022-09-28T05:06:30.817Z,98808.56
2022-09-28T05:09:09.414Z,98788.00
2022-09-28T05:11:44.994Z,98825.75
2022-09-28T05:14:19.908Z,98843.94
2022-09-28T05:16:51.136Z,98811.31
2022-09-28T05:19:30.291Z,98838.13
2022-09-28T05:22:06.316Z,98793.53
2022-09-28T05:24:44.971Z,98835.00
2022-09-28T05:27:19.962Z,98503.13
2022-09-28T05:29:59.515Z,98824.53
2022-09-28T05:32:47.172Z,98815.38
2022-09-28T05:35:49.774Z,98812.34
2022-09-28T05:38:26.665Z,98812.75
2022-09-28T05:40:55.609Z,98803.72
2022-09-28T05:43:24.613Z,98772.28
2022-09-28T05:45:55.860Z,98792.50
2022-09-28T05:48:25.621Z,98473.88
2022-09-28T05:51:01.186Z,98777.56
2022-09-28T05:53:43.486Z,98416.16
2022-09-28T05:56:12.532Z,98767.72
2022-09-28T05:58:45.187Z,98766.19
2022-09-28T06:01:14.809Z,98745.22
2022-09-28T06:03:47.777Z,98760.13
2022-09-28T06:06:18.184Z,98763.50
2022-09-28T06:08:52.090Z,98733.34
2022-09-28T06:11:39.646Z,98759.16
2022-09-28T06:14:20.344Z,98683.53
2022-09-28T06:16:49.182Z,98520.28
2022-09-28T06:19:19.528Z,98688.88
2022-09-28T06:22:07.013Z,98730.06
2022-09-28T06:25:05.872Z,98437.44
2022-09-28T06:27:42.080Z,98648.28
2022-09-28T06:30:12.036Z,98765.75
2022-09-28T06:32:44.628Z,98715.31
2022-09-28T06:35:18.940Z,98647.31
2022-09-28T06:37:49.318Z,98751.78
2022-09-28T06:40:20.841Z,98734.25
2022-09-28T06:42:58.217Z,98767.94
2022-09-28T06:45:54.121Z,98755.91
2022-09-28T06:48:34.874Z,98756.03
2022-09-28T06:51:04.362Z,98760.66
2022-09-28T06:53:43.837Z,98753.81
2022-09-28T06:56:43.084Z,98720.97
2022-09-28T06:59:14.438Z,98749.53
2022-09-28T07:01:46.301Z,98753.31
2022-09-28T07:04:35.333Z,98714.50
2022-09-28T07:07:22.960Z,98639.44
2022-09-28T07:10:13.108Z,98676.78
2022-09-28T07:13:04.987Z,98607.22
2022-09-28T07:15:44.144Z,98693.44
2022-09-28T07:18:15.733Z,98660.91
2022-09-28T07:20:53.862Z,98640.50
2022-09-28T07:23:23.429Z,98502.53
2022-09-28T07:26:10.992Z,98494.13
2022-09-28T07:29:11.054Z,98531.28
2022-09-28T07:32:03.020Z,98605.44
2022-09-28T07:34:59.057Z,98742.34
2022-09-28T07:37:48.294Z,98538.31
2022-09-28T07:40:34.893Z,98560.75
2022-09-28T07:43:08.273Z,98753.00
2022-09-28T07:45:38.710Z,98642.28
2022-09-28T07:48:07.953Z,98733.28
2022-09-28T07:50:54.814Z,98691.47
2022-09-28T07:53:38.549Z,98555.88
2022-09-28T07:56:27.545Z,98666.59
2022-09-28T07:59:00.782Z,98625.59
2022-09-28T08:01:42.708Z,98753.19
2022-09-28T08:04:15.175Z,98759.41
2022-09-28T08:06:49.421Z,98719.38
2022-09-28T08:09:18.480Z,98581.88
2022-09-28T08:12:23.469Z,98651.22
2022-09-28T08:15:12.146Z,98678.81
2022-09-28T08:17:51.380Z,98768.88
2022-09-28T08:20:39.872Z,98693.81
2022-09-28T08:23:11.438Z,98768.75
2022-09-28T08:25:48.933Z,98706.78
2022-09-28T08:28:18.803Z,98732.75
2022-09-28T08:30:50.389Z,98757.44
2022-09-28T08:33:29.838Z,98573.72
2022-09-28T08:36:24.706Z,98564.97
2022-09-28T08:39:14.052Z,98643.63
2022-09-28T08:42:32.222Z,98703.34
2022-09-28T08:45:23.281Z,98661.41
2022-09-28T08:48:38.993Z,98677.88
2022-09-28T08:51:36.736Z,98620.69
2022-09-28T08:54:34.706Z,98698.97
2022-09-28T08:57:13.171Z,98695.41
2022-09-28T08:59:54.604Z,98632.16
2022-09-28T09:02:34.515Z,98625.31
2022-09-28T09:05:22.505Z,98750.78
2022-09-28T09:08:35.328Z,98750.78
2022-09-28T09:11:21.654Z,98754.47
2022-09-28T09:14:21.425Z,98551.78
2022-09-28T09:17:01.961Z,98597.31
2022-09-28T09:19:53.489Z,98753.53
2022-09-28T09:22:46.332Z,98756.22
2022-09-28T09:25:26.089Z,98722.59
2022-09-28T09:28:36.483Z,98701.16
2022-09-28T09:31:26.793Z,98576.38
2022-09-28T09:34:35.546Z,98759.31
2022-09-28T09:38:00.338Z,98725.06
2022-09-28T09:41:16.040Z,98635.47
2022-09-28T09:44:35.131Z,98667.91
2022-09-28T09:47:27.578Z,98692.59
2022-09-28T09:50:12.799Z,98688.72
2022-09-28T09:52:52.194Z,98579.81
2022-09-28T09:55:30.162Z,98755.91
2022-09-28T09:58:27.716Z,98709.31
2022-09-28T10:01:10.507Z,98754.44
2022-09-28T10:04:07.340Z,98631.28
2022-09-28T10:06:40.351Z,98731.78
2022-09-28T10:09:18.351Z,98689.31
2022-09-28T10:11:49.968Z,98642.44
2022-09-28T10:14:23.301Z,98751.63
2022-09-28T10:17:08.366Z,98718.38
2022-09-28T10:20:16.421Z,98450.69
2022-09-28T10:23:17.717Z,98733.16
2022-09-28T10:25:54.613Z,98543.84
2022-09-28T10:28:35.537Z,98675.16
2022-09-28T10:31:40.131Z,98617.72
2022-09-28T10:34:17.315Z,98536.56
2022-09-28T10:36:55.366Z,98700.03
2022-09-28T10:39:34.152Z,98646.66
2022-09-28T10:42:07.696Z,98698.69
2022-09-28T10:44:52.304Z,98736.78
2022-09-28T10:47:32.854Z,98578.44
2022-09-28T10:50:02.343Z,98732.84
2022-09-28T10:52:42.292Z,98624.31
2022-09-28T10:55:32.282Z,98668.19
2022-09-28T10:58:27.774Z,98616.06
2022-09-28T11:01:05.178Z,98745.69
2022-09-28T11:03:41.356Z,98740.63
2022-09-28T11:06:12.719Z,98742.41
2022-09-28T11:08:45.870Z,98741.56
2022-09-28T11:11:25.199Z,98728.97
2022-09-28T11:14:03.974Z,98549.31
2022-09-28T11:16:37.726Z,98732.13
2022-09-28T11:19:32.728Z,98657.63
2022-09-28T11:22:03.866Z,98674.88
2022-09-28T11:24:37.670Z,98731.97
2022-09-28T11:27:06.471Z,98727.75
2022-09-28T11:29:41.886Z,98715.16
2022-09-28T11:32:44.617Z,98727.31
2022-09-28T11:35:33.326Z,98459.41
2022-09-28T11:38:42.058Z,98720.19
2022-09-28T11:41:52.674Z,98665.06
2022-09-28T11:44:46.575Z,98660.97
2022-09-28T11:47:55.387Z,98622.66
2022-09-28T11:50:42.927Z,98610.38
2022-09-28T11:53:29.242Z,98615.53
2022-09-28T11:56:19.281Z,98528.59
2022-09-28T11:58:56.716Z,98729.25
2022-09-28T12:01:48.506Z,98529.63
2022-09-28T12:04:40.306Z,98734.31
2022-09-28T12:07:23.332Z,98687.84
2022-09-28T12:10:01.600Z,98736.28
2022-09-28T12:12:39.277Z,98736.47
2022-09-28T12:15:20.525Z,98721.75
2022-09-28T12:17:57.351Z,98700.16
2022-09-28T12:20:30.901Z,98735.41
2022-09-28T12:23:19.246Z,98634.75
2022-09-28T12:25:56.289Z,98622.91
2022-09-28T12:28:35.974Z,98589.16
2022-09-28T12:31:21.563Z,98732.44
2022-09-28T12:33:53.389Z,98622.97
2022-09-28T12:36:41.621Z,98726.34
2022-09-28T12:39:57.048Z,98572.31
2022-09-28T12:43:00.058Z,98624.31
2022-09-28T12:46:11.540Z,98504.03
2022-09-28T12:52:25.406Z,98725.06
2022-09-28T12:55:24.756Z,98608.88
2022-09-28T12:58:16.720Z,98706.38
2022-09-28T13:01:05.550Z,98493.06
2022-09-28T13:04:14.569Z,98693.59
2022-09-28T13:06:58.532Z,98623.03
2022-09-28T13:09:29.429Z,98725.72
2022-09-28T13:12:22.671Z,98727.72
2022-09-28T13:15:42.129Z,98741.94
2022-09-28T13:18:23.655Z,98603.53
2022-09-28T13:21:11.766Z,98633.38
2022-09-28T13:23:46.679Z,98635.88
2022-09-28T13:26:28.867Z,98697.06
2022-09-28T13:29:05.060Z,98738.13
2022-09-28T13:32:08.264Z,98514.03
2022-09-28T13:34:45.056Z,98733.41
2022-09-28T13:37:28.178Z,98674.47
2022-09-28T13:40:05.127Z,98440.88
2022-09-28T13:43:07.087Z,98744.97
2022-09-28T13:45:56.781Z,98747.53
2022-09-28T13:48:44.446Z,98689.88
2022-09-28T13:51:38.212Z,98671.63
2022-09-28T13:54:31.596Z,98750.75
2022-09-28T13:57:18.129Z,98712.47
2022-09-28T14:00:04.133Z,98748.09
2022-09-28T14:02:48.012Z,98747.47
2022-09-28T14:06:11.511Z,98752.53
2022-09-28T14:08:46.038Z,98751.50
2022-09-28T14:11:55.137Z,98714.31
2022-09-28T14:14:50.801Z,98754.34
2022-09-28T14:18:02.240Z,98763.00
2022-09-28T14:20:32.794Z,98505.56
2022-09-28T14:23:43.310Z,98751.16
2022-09-28T14:27:02.470Z,98738.91
2022-09-28T14:29:35.324Z,98778.09
2022-09-28T14:32:34.817Z,98765.94
2022-09-28T14:35:08.604Z,98781.75
2022-09-28T14:38:11.312Z,98780.19
2022-09-28T14:41:11.289Z,98761.16
2022-09-28T14:44:02.678Z,98804.56
2022-09-28T14:46:38.662Z,98796.97
2022-09-28T14:49:45.110Z,98804.03
2022-09-28T14:52:20.494Z,98520.00
2022-09-28T14:54:59.039Z,98812.41
2022-09-28T14:57:36.413Z,98668.47
2022-09-28T15:00:17.777Z,98723.84
2022-09-28T15:02:52.811Z,98818.09
2022-09-28T15:05:28.235Z,98808.91
2022-09-28T15:07:58.515Z,98782.59
2022-09-28T15:10:32.758Z,98795.38
2022-09-28T15:13:08.404Z,98791.09
2022-09-28T15:15:41.161Z,98793.13
2022-09-28T15:19:09.203Z,98818.34
2022-09-28T15:21:43.249Z,98783.38
2022-09-28T15:24:35.270Z,98816.44
2022-09-28T15:27:15.067Z,98820.25
2022-09-28T15:30:00.535Z,98806.31
2022-09-28T15:32:32.285Z,98826.41
2022-09-28T15:35:14.588Z,98826.22
2022-09-28T15:37:47.089Z,98829.28
2022-09-28T15:40:26.779Z,98828.53
2022-09-28T15:42:59.249Z,98833.16
2022-09-28T15:45:35.132Z,98778.50
2022-09-28T15:48:29.182Z,98836.53
2022-09-28T15:51:10.962Z,98840.16
2022-09-28T15:53:59.203Z,98771.06
2022-09-28T15:56:33.155Z,98848.50
2022-09-28T15:59:23.826Z,98654.38
2022-09-28T16:02:12.813Z,98847.53
2022-09-28T16:04:50.591Z,98850.88
2022-09-28T16:07:28.912Z,98858.53
2022-09-28T16:10:27.532Z,98852.91
2022-09-28T16:13:11.001Z,98534.81
2022-09-28T16:15:41.925Z,98755.25
2022-09-28T16:18:23.537Z,98866.84
2022-09-28T16:20:54.862Z,98817.78
2022-09-28T16:23:33.198Z,98742.47
2022-09-28T16:26:09.183Z,98864.41
2022-09-28T16:28:54.906Z,98866.97
2022-09-28T16:31:36.822Z,98881.91
2022-09-28T16:34:20.894Z,98885.69
2022-09-28T16:36:51.671Z,98825.72
2022-09-28T16:39:24.481Z,98884.31
2022-09-28T16:42:04.241Z,98885.28
2022-09-28T16:44:35.939Z,98819.50
2022-09-28T16:47:04.651Z,98892.56
2022-09-28T16:49:35.169Z,98752.03
2022-09-28T16:52:12.944Z,98899.09
2022-09-28T16:54:59.133Z,98778.56
2022-09-28T16:57:52.811Z,98922.34
2022-09-28T17:00:25.414Z,98919.19
2022-09-28T17:02:54.558Z,98893.09
2022-09-28T17:05:23.578Z,98674.63
2022-09-28T17:08:02.603Z,98915.22
2022-09-28T17:10:50.053Z,98924.00
2022-09-28T17:13:33.284Z,98939.34
2022-09-28T17:16:06.324Z,98903.25
2022-09-28T17:18:37.979Z,98922.97
2022-09-28T17:21:10.853Z,98927.59
2022-09-28T17:23:39.591Z,98929.78
2022-09-28T17:26:08.899Z,98932.84
2022-09-28T17:28:38.347Z,98788.22
2022-09-28T17:31:15.451Z,98893.50
2022-09-28T17:33:44.454Z,98939.75
2022-09-28T17:36:18.221Z,98950.84
2022-09-28T17:38:49.073Z,98914.97
2022-09-28T17:41:20.845Z,98882.75
2022-09-28T17:43:50.262Z,98951.81
2022-09-28T17:46:30.046Z,98954.00
2022-09-28T17:49:00.595Z,98963.97
2022-09-28T17:51:32.393Z,98954.66
2022-09-28T17:54:02.310Z,98958.31
2022-09-28T17:56:32.567Z,98961.97
2022-09-28T17:59:03.895Z,98955.34
2022-09-28T18:01:40.219Z,98959.03
2022-09-28T18:04:23.118Z,98960.28
2022-09-28T18:07:01.120Z,98965.75
2022-09-28T18:09:29.879Z,98974.66
2022-09-28T18:12:02.450Z,98978.31
2022-09-28T18:14:31.876Z,98820.94
2022-09-28T18:17:01.900Z,98977.69
2022-09-28T18:19:32.312Z,98977.00
2022-09-28T18:22:01.923Z,98979.78
2022-09-28T18:24:32.521Z,98980.69
2022-09-28T18:27:01.475Z,98986.97
2022-09-28T18:29:33.357Z,98990.56
2022-09-28T18:32:04.686Z,98989.78
2022-09-28T18:34:36.525Z,98935.69
2022-09-28T18:37:06.105Z,98995.28
2022-09-28T18:39:37.002Z,98998.06
2022-09-28T18:42:06.151Z,98991.34
2022-09-28T18:44:35.472Z,99003.44
2022-09-28T18:47:05.731Z,98819.31
2022-09-28T18:49:34.768Z,99004.28
2022-09-28T18:52:03.570Z,99003.50
2022-09-28T18:54:33.342Z,98998.41
2022-09-28T18:57:01.904Z,99002.34
2022-09-28T18:59:30.564Z,98934.25
2022-09-28T19:01:59.404Z,98805.41
2022-09-28T19:04:29.705Z,99004.97
2022-09-28T19:06:58.487Z,99004.97
2022-09-28T19:09:28.211Z,99004.25
2022-09-28T19:11:56.968Z,98859.72
2022-09-28T19:14:26.032Z,98854.59
2022-09-28T19:16:54.672Z,98856.66
2022-09-28T19:19:23.294Z,99011.38
2022-09-28T19:21:53.366Z,99019.25
2022-09-28T19:24:22.446Z,99021.00
2022-09-28T19:26:55.767Z,99026.97
2022-09-28T19:29:24.780Z,99021.63
2022-09-28T19:31:54.419Z,99026.78
2022-09-28T19:34:27.068Z,99024.22
2022-09-28T19:36:57.777Z,98995.03
2022-09-28T19:39:26.598Z,99024.59
2022-09-28T19:41:57.729Z,99026.53
2022-09-28T19:44:29.344Z,99022.34
2022-09-28T19:47:00.679Z,99032.06
2022-09-28T19:49:36.148Z,99034.00
2022-09-28T19:52:17.258Z,99029.78
2022-09-28T19:54:54.508Z,99035.06
2022-09-28T19:57:24.829Z,99024.81
2022-09-28T19:59:57.819Z,99030.00
2022-09-28T20:02:30.170Z,99033.50
2022-09-28T20:04:59.010Z,99039.78
2022-09-28T20:07:32.990Z,98982.81
2022-09-28T20:10:01.932Z,99031.16
2022-09-28T20:12:30.702Z,98962.41
2022-09-28T20:14:59.558Z,98997.88
2022-09-28T20:17:30.749Z,99041.09
2022-09-28T20:19:59.536Z,98981.50
2022-09-28T20:22:31.052Z,99047.22
2022-09-28T20:25:00.768Z,99050.72
2022-09-28T20:27:30.452Z,99043.72
2022-09-28T20:29:59.716Z,99051.59
2022-09-28T20:32:28.712Z,98825.97
2022-09-28T20:34:57.580Z,99034.41
2022-09-28T20:37:31.023Z,99052.66
2022-09-28T20:40:01.047Z,99049.13
2022-09-28T20:42:32.144Z,98930.38
2022-09-28T20:45:00.854Z,99026.97
2022-09-28T20:47:29.620Z,98865.22
2022-09-28T20:49:58.594Z,99048.72
2022-09-28T20:52:27.183Z,99055.69
2022-09-28T20:54:57.289Z,99074.06
2022-09-28T20:57:26.369Z,99043.06
2022-09-28T20:59:55.115Z,99061.25
2022-09-28T21:02:23.953Z,99045.94
2022-09-28T21:04:52.887Z,99067.41
2022-09-28T21:07:22.099Z,99077.13
2022-09-28T21:09:51.027Z,99019.56
2022-09-28T21:12:21.365Z,99082.47
2022-09-28T21:14:50.445Z,99085.97
2022-09-28T21:17:19.240Z,99090.34
2022-09-28T21:19:48.017Z,99087.03
2022-09-28T21:22:16.966Z,99059.34
2022-09-28T21:24:45.758Z,99064.72
2022-09-28T21:27:14.657Z,99033.59
2022-09-28T21:29:44.801Z,99088.06
2022-09-28T21:32:13.658Z,99037.13
2022-09-28T21:34:42.243Z,99063.22
2022-09-28T21:37:17.924Z,99065.88
2022-09-28T21:39:46.843Z,99106.44
2022-09-28T21:42:15.525Z,99036.69
2022-09-28T21:44:45.765Z,99079.81
2022-09-28T21:47:14.485Z,99067.66
2022-09-28T21:49:43.140Z,99091.97
2022-09-28T21:52:11.903Z,99117.78
2022-09-28T21:54:41.917Z,99104.78
2022-09-28T21:57:10.975Z,99121.19
2022-09-28T21:59:46.298Z,98945.44
2022-09-28T22:02:40.180Z,98786.66
2022-09-28T22:05:10.111Z,99126.22
2022-09-28T22:07:44.746Z,99127.78
2022-09-28T22:10:17.821Z,98875.28
2022-09-28T22:12:52.951Z,98813.34
2022-09-28T22:15:21.954Z,99126.94
2022-09-28T22:17:54.847Z,99142.31
2022-09-28T22:20:23.610Z,99139.50
2022-09-28T22:22:52.722Z,99126.50
2022-09-28T22:25:21.538Z,99147.84
2022-09-28T22:27:50.614Z,98976.13
2022-09-28T22:30:19.463Z,99060.41
2022-09-28T22:32:48.187Z,99139.56
2022-09-28T22:35:18.578Z,99158.50
2022-09-28T22:37:47.362Z,99157.41
2022-09-28T22:40:16.268Z,99157.13
2022-09-28T22:42:44.998Z,99162.97
2022-09-28T22:45:13.777Z,99148.72
2022-09-28T22:47:42.734Z,99157.38
2022-09-28T22:50:11.634Z,99142.75
2022-09-28T22:52:43.486Z,99049.50
2022-09-28T22:55:12.904Z,99162.34
2022-09-28T22:57:42.179Z,99158.78
2022-09-28T23:00:16.630Z,99159.63
2022-09-28T23:02:47.541Z,99137.22
2022-09-28T23:05:17.197Z,99056.97
2022-09-28T23:07:47.643Z,99155.03
2022-09-28T23:10:17.012Z,99068.78
2022-09-28T23:12:46.012Z,99015.19
2022-09-28T23:15:15.575Z,98930.66
2022-09-28T23:17:44.287Z,99160.75
2022-09-28T23:20:13.019Z,99107.34
2022-09-28T23:22:47.678Z,99106.53
2022-09-28T23:25:19.805Z,99168.50
2022-09-28T23:27:49.733Z,99095.38
2022-09-28T23:30:22.026Z,98997.84
2022-09-28T23:32:55.318Z,99168.34
2022-09-28T23:35:25.878Z,99174.28
2022-09-28T23:37:56.618Z,99127.56
2022-09-28T23:40:29.426Z,99176.84
2022-09-28T23:42:58.503Z,99171.53
2022-09-28T23:45:27.283Z,99099.88
2022-09-28T23:47:58.847Z,99176.75
2022-09-28T23:50:29.565Z,99170.72
2022-09-28T23:53:09.259Z,99173.47
2022-09-28T23:55:39.847Z,99047.81
2022-09-28T23:58:08.942Z,99118.84
